Create Custom Reports and Graphics: Custom Report

Anza Map

Map

10 Minute Data

Latest Observation

23 Stations

10 Minute Data | America/Los_Angeles
as of 8/1/21 5:16 PM PDT
Station Date Time Temp (°F) Dew Pt (°F) RH (%) Wind Spd (mph) Wind Dir (°) Wind Gust (mph) Wind Gst Dir (°) Daily Max Temp (°F) Daily Min Temp (°F) Daily Max Wind (mph) Max Wind Dir (°)
Thomas Mountain 8/1/21 1710 82.8   3.0 46.2   5.5 28   10 7.7 NW | 304 16.9 W | 259 86.6 65.6 27.8 WSW | 253
Red Mountain 8/1/21 1710 83.2   2.9 47.1   6.9 28   12 13.7 WSW | 244 20.2 W | 263 88.4 70.8 27.8 WSW | 246
Coyote Canyon 8/1/21 1710 87.5   1.7 45.5   7.6 23   9 16.5 W | 269 27.6 WNW | 283 91.1 68.4 27.8 WNW | 296
Pinyon 8/1/21 1710 87.8   3.3 40.8   13.2 19   16 6.8 NNE | 16 12.1 NE | 38 89.1 74.4 22.6 NNE | 23
Aguanga Barbara Trail 7/20/21 2130 77.3   1.6 52.7   0.4 42   3 1.7 WNW | 284 3.3 W | 274 90.6 68.4 22.6 WSW | 250
SCE Idyllwild Ridge 8/1/21 1710 79.8   2.2 43.7   10.4 28   16 1.7 NW | 304 4.8 N | 350 83.3 62.8 11.1 S | 175
SCE Idyllwild Hwy 8/1/21 1710 95.6   1.5 50.3   6.1 22   7 4.9 NW | 326 12.8 NW | 322 98.1 66.6 15.9 NW | 326
SCE Apple Canyon 8/1/21 1710 83.4   2.7 44.5   8.6 26   13 5.0 W | 260 16.0 WSW | 239 86.1 67.8 19.1 WSW | 244
SCE Keen Ridge 8/1/21 1710 80.4   1.9 46.3   7.7 30   13 15.8 WNW | 298 24.0 NW | 317 82.3 66.5 24.7 NW | 312
SCE Aguanga 8/1/21 1710 93.9   0.3 47.8   6.6 21   6 10.8 NNW | 328 16.5 NNW | 332 97.6 70.6 19.6 NW | 311
SCE Butterfield Valley 8/1/21 1710 96.6   1.2 47.9   6.6 19   6 11.5 NW | 310 17.1 NW | 305 100.1 62.9 21.5 W | 272
SCE Anza Rd 8/1/21 1710 93.2   4.5 52.9   5.0 26   10 8.6 SW | 222 14.2 SW | 223 97.3 61.7 22.1 S | 184
SCE Wilson Valley Rd 8/1/21 1710 91.6   2.0 47.1   4.6 22   6 7.5 W | 276 15.0 WNW | 288 95.0 72.9 15.5 W | 270
SCE Weber Valley 8/1/21 1710 88.6   2.1 48.8   5.3 25   8 7.2 W | 274 16.6 WNW | 284 95.4 73.4 18.6 WSW | 250
SCE Red Mountain Rd 8/1/21 1710 87.1   2.2 50.2   5.9 28   9 8.1 W | 259 12.9 W | 277 92.0 75.1 20.8 WNW | 291
SCE Brown Canyon 8/1/21 1710 95.2   2.6 49.7   6.8 22   8 8.9 WNW | 290 14.0 W | 270 99.1 68.7 18.3 WNW | 293
SCE Cedar Ave 8/1/21 1710 98.1   2.5 46.3   10.0 17   10 8.5 WNW | 291 17.0 W | 276 100.5 67.1 22.3 NW | 304
SCE Anderson Dr 8/1/21 1700 98.8   2.3 46.1   11.0 17   10 4.7 W | 268 12.4 WNW | 286 101.5 69.9 15.5 WSW | 250
SCE Pachea Trail 8/1/21 1710 94.5   2.3 51.5   6.6 23   9 9.4 WSW | 254 14.8 WSW | 256 99.3 74.2 24.4 NNE | 13
SCE Painted Canyon Rd 8/1/21 1710 106.0   6.5 42.9   17.1 12   15 3.1 ESE | 103 7.3 ENE | 62 107.0 83.0 17.2 ENE | 76
Oak Grove 8/1/21 1710 92.6   0.2 47.0   5.8 21   5 15.0 NW | 316 22.1 WNW | 298 94.9 59.1 25.1 NW | 310
Chihuahua Valley 8/1/21 1710 85.5   1.5 43.0   11.8 23   14 10.8 WNW | 286 20.2 WNW | 302 88.5 62.5 20.2 WNW | 302
Sunshine Summit 8/1/21 1710 91.0   2.1 45.4   9.8 21   11 9.4 NW | 318 16.5 NNW | 332 93.5 63.8 17.8 NW | 311
Max     106.0 52.9 30 16.5 - 27.6 - 107.0 83.0 27.8 -
Avg     90.6 46.9 23 8.9 - 15.9 - - - - -
Min     79.8 40.8 12 1.7 - 4.8 - 82.3 59.1 11.1 -